createdAt,value
2022-11-04T00:01:42.785Z,15.88
2022-11-04T00:04:10.659Z,12.25
2022-11-04T00:06:37.843Z,16.45
2022-11-04T00:09:06.474Z,13.93
2022-11-04T00:11:51.315Z,18.23
2022-11-04T00:14:17.973Z,15.02
2022-11-04T00:17:03.070Z,15.07
2022-11-04T00:19:49.672Z,12.65
2022-11-04T00:22:35.246Z,13.95
2022-11-04T00:25:20.481Z,16.83
2022-11-04T00:28:05.453Z,15.25
2022-11-04T00:30:32.162Z,15.88
2022-11-04T00:33:17.258Z,16.88
2022-11-04T00:35:50.911Z,17.50
2022-11-04T00:38:17.979Z,14.07
2022-11-04T00:40:44.651Z,18.05
2022-11-04T00:43:11.984Z,17.77
2022-11-04T00:45:41.118Z,15.07
2022-11-04T00:48:07.865Z,16.00
2022-11-04T00:50:34.534Z,16.42
2022-11-04T00:53:01.959Z,13.68
2022-11-04T00:55:28.685Z,16.70
2022-11-04T00:57:55.715Z,19.23
2022-11-04T01:00:22.286Z,17.42
2022-11-04T01:02:48.722Z,15.70
2022-11-04T01:05:15.908Z,16.95
2022-11-04T01:07:43.796Z,15.88
2022-11-04T01:10:11.212Z,15.25
2022-11-04T01:12:37.627Z,14.20
2022-11-04T01:15:04.522Z,18.70
2022-11-04T01:17:30.919Z,18.52
2022-11-04T01:19:57.307Z,15.80
2022-11-04T01:22:23.706Z,13.25
2022-11-04T01:24:50.112Z,12.25
2022-11-04T01:27:16.523Z,16.73
2022-11-04T01:29:42.930Z,18.10
2022-11-04T01:32:09.321Z,13.75
2022-11-04T01:34:40.627Z,17.30
2022-11-04T01:37:09.766Z,12.35
2022-11-04T01:39:36.153Z,17.25
2022-11-04T01:44:49.653Z,23.55
2022-11-04T01:47:18.691Z,17.67
2022-11-04T01:49:49.179Z,13.90
2022-11-04T01:52:24.307Z,15.27
2022-11-04T01:54:55.507Z,15.25
2022-11-04T01:57:33.081Z,17.55
2022-11-04T02:00:02.709Z,16.30
2022-11-04T02:02:29.319Z,15.85
2022-11-04T02:04:56.657Z,12.80
2022-11-04T02:07:23.554Z,14.82
2022-11-04T02:09:50.209Z,20.60
2022-11-04T02:12:35.890Z,13.02
2022-11-04T02:15:02.664Z,12.55
2022-11-04T02:17:49.553Z,13.27
2022-11-04T02:20:21.892Z,14.70
2022-11-04T02:23:20.792Z,15.50
2022-11-04T02:26:08.657Z,17.05
2022-11-04T02:29:22.725Z,17.40
2022-11-04T02:31:52.580Z,20.35
2022-11-04T02:34:26.668Z,18.50
2022-11-04T02:37:02.997Z,21.55
2022-11-04T02:39:58.703Z,17.77
2022-11-04T02:42:27.873Z,14.60
2022-11-04T02:45:06.229Z,19.85
2022-11-04T02:47:37.033Z,18.85
2022-11-04T02:50:12.785Z,22.70
2022-11-04T02:52:51.515Z,22.00
2022-11-04T02:55:24.177Z,23.95
2022-11-04T02:57:53.858Z,17.33
2022-11-04T03:00:21.312Z,15.93
2022-11-04T03:02:50.337Z,18.40
2022-11-04T03:05:22.177Z,21.40
2022-11-04T03:07:51.373Z,23.95
2022-11-04T03:10:24.766Z,22.67
2022-11-04T03:13:25.545Z,20.10
2022-11-04T03:15:57.211Z,21.38
2022-11-04T03:20:51.529Z,18.10
2022-11-04T03:23:18.580Z,22.40
2022-11-04T03:25:48.003Z,23.13
2022-11-04T03:28:27.283Z,23.95
2022-11-04T03:30:58.978Z,25.27
2022-11-04T03:36:03.001Z,21.80
2022-11-04T03:38:29.436Z,25.33
2022-11-04T03:40:58.549Z,23.77
2022-11-04T03:43:27.747Z,16.95
2022-11-04T03:45:55.077Z,20.10
2022-11-04T03:48:22.948Z,21.35
2022-11-04T03:50:51.006Z,16.30
2022-11-04T03:53:21.951Z,22.42
2022-11-04T03:56:12.074Z,24.17
2022-11-04T03:58:55.957Z,27.02
2022-11-04T04:01:44.369Z,23.13
2022-11-04T04:04:23.865Z,19.38
2022-11-04T04:06:54.495Z,20.65
2022-11-04T04:09:27.635Z,18.08
2022-11-04T04:12:01.004Z,22.45
2022-11-04T04:14:57.321Z,17.15
2022-11-04T04:17:37.936Z,19.00
2022-11-04T04:20:09.401Z,20.58
2022-11-04T04:22:51.316Z,22.08
2022-11-04T04:28:05.831Z,24.27
2022-11-04T04:30:32.733Z,27.70
2022-11-04T04:33:11.513Z,20.83
2022-11-04T04:35:49.148Z,26.55
2022-11-04T04:38:43.743Z,18.60
2022-11-04T04:41:48.999Z,20.35
2022-11-04T04:44:47.380Z,17.45
2022-11-04T04:47:25.801Z,20.63
2022-11-04T04:49:56.664Z,21.45
2022-11-04T04:52:25.527Z,22.30
2022-11-04T04:54:51.919Z,22.92
2022-11-04T04:57:18.388Z,19.05
2022-11-04T04:59:44.817Z,25.08
2022-11-04T05:02:11.440Z,21.00
2022-11-04T05:04:37.980Z,20.10
2022-11-04T05:07:04.417Z,25.67
2022-11-04T05:09:30.799Z,24.75
2022-11-04T05:11:57.741Z,24.13
2022-11-04T05:14:24.157Z,21.35
2022-11-04T05:16:50.565Z,22.10
2022-11-04T05:19:17.083Z,27.05
2022-11-04T05:21:43.509Z,21.38
2022-11-04T05:24:10.860Z,21.13
2022-11-04T05:26:37.372Z,25.15
2022-11-04T05:29:04.165Z,21.10
2022-11-04T05:31:30.792Z,19.65
2022-11-04T05:33:58.932Z,24.98
2022-11-04T05:36:25.993Z,24.80
2022-11-04T05:38:55.543Z,24.45
2022-11-04T05:41:27.781Z,20.70
2022-11-04T05:43:56.484Z,29.30
2022-11-04T05:46:23.834Z,24.42
2022-11-04T05:48:50.737Z,21.95
2022-11-04T05:51:19.999Z,26.13
2022-11-04T05:53:46.400Z,21.92
2022-11-04T05:56:12.912Z,22.35
2022-11-04T05:58:39.500Z,24.10
2022-11-04T06:01:27.883Z,25.77
2022-11-04T06:03:55.333Z,21.77
2022-11-04T06:06:23.251Z,25.73
2022-11-04T06:08:50.810Z,25.83
2022-11-04T06:11:18.213Z,23.85
2022-11-04T06:13:44.792Z,23.90
2022-11-04T06:16:11.431Z,27.20
2022-11-04T06:18:37.845Z,28.67
2022-11-04T06:21:31.625Z,25.25
2022-11-04T06:23:58.903Z,26.40
2022-11-04T06:26:28.284Z,28.80
2022-11-04T06:28:55.387Z,22.33
2022-11-04T06:31:22.163Z,22.05
2022-11-04T06:33:48.747Z,31.42
2022-11-04T06:36:16.406Z,24.73
2022-11-04T06:38:43.301Z,26.48
2022-11-04T06:41:15.838Z,29.02
2022-11-04T06:43:42.638Z,24.65
2022-11-04T06:46:25.411Z,24.92
2022-11-04T06:48:51.933Z,27.98
2022-11-04T06:51:18.816Z,26.63
2022-11-04T06:53:45.250Z,25.13
2022-11-04T06:56:11.649Z,28.73
2022-11-04T06:58:38.174Z,28.63
2022-11-04T07:01:11.091Z,31.08
2022-11-04T07:03:40.135Z,23.08
2022-11-04T07:06:10.989Z,23.88
2022-11-04T07:08:37.448Z,25.60
2022-11-04T07:11:04.470Z,27.88
2022-11-04T07:13:30.917Z,34.80
2022-11-04T07:15:57.943Z,27.33
2022-11-04T07:18:24.373Z,26.33
2022-11-04T07:20:50.812Z,25.60
2022-11-04T07:23:17.678Z,26.10
2022-11-04T07:25:44.183Z,25.17
2022-11-04T07:28:10.944Z,26.88
2022-11-04T07:30:37.530Z,29.20
2022-11-04T07:33:03.965Z,28.13
2022-11-04T07:35:30.471Z,27.45
2022-11-04T07:37:56.876Z,31.67
2022-11-04T07:40:23.284Z,28.42
2022-11-04T07:42:49.753Z,26.00
2022-11-04T07:45:16.424Z,27.75
2022-11-04T07:47:42.837Z,24.20
2022-11-04T07:50:11.264Z,27.52
2022-11-04T07:52:38.383Z,27.02
2022-11-04T07:55:05.459Z,31.75
2022-11-04T07:57:31.891Z,29.33
2022-11-04T07:59:58.357Z,32.92
2022-11-04T08:02:28.651Z,25.23
2022-11-04T08:04:57.587Z,27.80
2022-11-04T08:07:24.523Z,22.38
2022-11-04T08:09:50.902Z,24.10
2022-11-04T08:12:17.347Z,24.40
2022-11-04T08:14:43.769Z,25.63
2022-11-04T08:17:10.187Z,26.73
2022-11-04T08:19:36.645Z,27.65
2022-11-04T08:22:03.161Z,25.63
2022-11-04T08:24:29.613Z,24.95
2022-11-04T08:26:56.035Z,26.95
2022-11-04T08:29:23.669Z,28.55
2022-11-04T08:31:50.065Z,28.17
2022-11-04T08:34:18.339Z,29.65
2022-11-04T08:36:45.536Z,27.08
2022-11-04T08:39:13.285Z,27.40
2022-11-04T08:41:43.019Z,23.70
2022-11-04T08:44:11.948Z,23.92
2022-11-04T08:46:40.271Z,26.63
2022-11-04T08:49:10.567Z,26.73
2022-11-04T08:51:41.913Z,25.33
2022-11-04T08:54:08.698Z,25.55
2022-11-04T08:56:37.537Z,26.38
2022-11-04T08:59:05.437Z,25.02
2022-11-04T09:01:36.828Z,25.60
2022-11-04T09:04:05.392Z,29.65
2022-11-04T09:06:36.040Z,24.73
2022-11-04T09:09:04.917Z,24.92
2022-11-04T09:11:38.221Z,27.00
2022-11-04T09:14:05.580Z,27.05
2022-11-04T09:16:34.675Z,26.88
2022-11-04T09:19:01.962Z,28.77
2022-11-04T09:21:29.077Z,24.48
2022-11-04T09:23:56.054Z,30.92
2022-11-04T09:26:23.920Z,29.00
2022-11-04T09:28:55.788Z,24.42
2022-11-04T09:31:22.847Z,24.15
2022-11-04T09:33:50.375Z,22.88
2022-11-04T09:36:17.228Z,25.13
2022-11-04T09:38:43.712Z,25.88
2022-11-04T09:41:28.695Z,24.05
2022-11-04T09:44:11.805Z,20.67
2022-11-04T09:46:39.428Z,21.95
2022-11-04T09:49:08.843Z,26.67
2022-11-04T09:51:53.689Z,26.02
2022-11-04T09:54:33.226Z,20.13
2022-11-04T09:57:02.607Z,27.33
2022-11-04T09:59:32.829Z,28.60
2022-11-04T10:02:12.056Z,23.70
2022-11-04T10:05:02.598Z,27.38
2022-11-04T10:07:50.183Z,27.30
2022-11-04T10:10:42.571Z,21.15
2022-11-04T10:13:32.304Z,25.80
2022-11-04T10:16:19.015Z,25.83
2022-11-04T10:19:16.049Z,24.83
2022-11-04T10:22:03.084Z,21.48
2022-11-04T10:24:41.315Z,20.55
2022-11-04T10:27:16.232Z,19.08
2022-11-04T10:29:47.189Z,19.83
2022-11-04T10:32:22.550Z,22.77
2022-11-04T10:34:57.269Z,18.92
2022-11-04T10:37:25.561Z,20.73
2022-11-04T10:39:59.486Z,18.38
2022-11-04T10:42:26.091Z,19.45
2022-11-04T10:44:53.037Z,15.10
2022-11-04T10:47:41.270Z,16.42
2022-11-04T10:50:41.983Z,20.52
2022-11-04T10:53:18.330Z,19.60
2022-11-04T10:56:07.951Z,18.08
2022-11-04T10:58:45.138Z,18.48
2022-11-04T11:01:31.746Z,18.13
2022-11-04T11:03:59.318Z,17.83
2022-11-04T11:06:29.698Z,16.65
2022-11-04T11:09:29.560Z,18.52
2022-11-04T11:12:02.080Z,17.35
2022-11-04T11:14:28.508Z,16.42
2022-11-04T11:17:14.277Z,19.65
2022-11-04T11:19:56.294Z,19.88
2022-11-04T11:22:41.222Z,17.88
2022-11-04T11:25:25.881Z,16.45
2022-11-04T11:28:00.122Z,14.38
2022-11-04T11:30:33.845Z,15.63
2022-11-04T11:33:08.625Z,14.82
2022-11-04T11:35:42.130Z,18.77
2022-11-04T11:38:19.004Z,18.65
2022-11-04T11:41:03.819Z,14.68
2022-11-04T11:43:36.611Z,14.32
2022-11-04T11:46:03.297Z,17.20
2022-11-04T11:48:32.697Z,14.55
2022-11-04T11:51:00.270Z,14.60
2022-11-04T11:53:34.275Z,14.27
2022-11-04T11:56:14.784Z,16.20
2022-11-04T12:01:46.838Z,15.95
2022-11-04T12:10:29.947Z,16.63
2022-11-04T12:13:02.770Z,15.77
2022-11-04T12:15:51.903Z,16.30
2022-11-04T12:18:27.542Z,15.43
2022-11-04T12:21:24.060Z,17.25
2022-11-04T12:24:01.109Z,16.33
2022-11-04T12:26:53.906Z,13.50
2022-11-04T12:29:51.397Z,14.40
2022-11-04T12:32:22.499Z,17.52
2022-11-04T12:35:20.574Z,12.63
2022-11-04T12:37:56.073Z,16.05
2022-11-04T12:40:29.547Z,13.23
2022-11-04T12:42:59.111Z,15.73
2022-11-04T12:45:44.382Z,13.35
2022-11-04T12:48:20.273Z,15.20
2022-11-04T12:50:56.073Z,13.80
2022-11-04T12:53:51.540Z,13.18
2022-11-04T12:56:20.492Z,13.40
2022-11-04T12:59:05.655Z,12.63
2022-11-04T13:01:39.148Z,14.95
2022-11-04T13:04:21.568Z,12.57
2022-11-04T13:06:54.852Z,13.60
2022-11-04T13:09:39.313Z,16.23
2022-11-04T13:12:16.478Z,14.90
2022-11-04T13:14:51.948Z,14.80
2022-11-04T13:17:24.520Z,15.68
2022-11-04T13:19:54.245Z,14.30
2022-11-04T13:22:25.573Z,13.05
2022-11-04T13:25:20.093Z,12.00
2022-11-04T13:27:50.592Z,13.75
2022-11-04T13:30:23.319Z,11.32
2022-11-04T13:32:59.122Z,13.40
2022-11-04T13:35:31.743Z,16.05
2022-11-04T13:38:03.092Z,16.48
2022-11-04T13:41:10.437Z,18.92
2022-11-04T13:43:46.682Z,28.35
2022-11-04T13:46:13.028Z,24.73
2022-11-04T13:48:50.039Z,31.10
2022-11-04T13:51:17.913Z,29.20
2022-11-04T13:53:46.213Z,30.00
2022-11-04T13:56:37.091Z,28.08
2022-11-04T13:59:25.290Z,25.02
2022-11-04T14:02:11.955Z,21.35
2022-11-04T14:04:43.491Z,22.40
2022-11-04T14:07:14.370Z,23.35
2022-11-04T14:09:46.648Z,22.70
2022-11-04T14:12:19.592Z,18.15
2022-11-04T14:14:51.499Z,19.15
2022-11-04T14:17:33.290Z,19.02
2022-11-04T14:20:08.971Z,25.00
2022-11-04T14:22:44.296Z,25.95
2022-11-04T14:25:38.593Z,21.63
2022-11-04T14:28:11.163Z,21.02
2022-11-04T14:30:50.826Z,17.17
2022-11-04T14:33:23.936Z,19.02
2022-11-04T14:35:55.381Z,19.55
2022-11-04T14:38:30.616Z,20.33
2022-11-04T14:41:29.609Z,20.90
2022-11-04T14:44:00.305Z,18.15
2022-11-04T14:46:31.267Z,17.73
2022-11-04T14:49:01.209Z,18.13
2022-11-04T14:51:30.828Z,17.42
2022-11-04T14:54:06.505Z,18.13
2022-11-04T14:56:33.218Z,18.83
2022-11-04T14:59:07.566Z,22.90
2022-11-04T15:01:39.585Z,19.00
2022-11-04T15:04:15.074Z,18.77
2022-11-04T15:06:54.710Z,19.35
2022-11-04T15:09:28.756Z,26.85
2022-11-04T15:12:36.235Z,28.67
2022-11-04T15:15:30.685Z,24.27
2022-11-04T15:18:29.098Z,25.65
2022-11-04T15:20:59.256Z,26.13
2022-11-04T15:23:31.206Z,22.92
2022-11-04T15:25:59.283Z,24.67
2022-11-04T15:28:35.655Z,20.75
2022-11-04T15:31:05.953Z,19.65
2022-11-04T15:33:38.724Z,18.65
2022-11-04T15:36:08.496Z,19.95
2022-11-04T15:38:36.142Z,20.13
2022-11-04T15:41:23.596Z,21.02
2022-11-04T15:43:50.344Z,17.60
2022-11-04T15:46:20.950Z,20.90
2022-11-04T15:49:01.793Z,21.92
2022-11-04T15:51:31.198Z,21.02
2022-11-04T15:54:18.867Z,21.33
2022-11-04T15:56:52.537Z,20.10
2022-11-04T15:59:23.700Z,25.35
2022-11-04T16:01:52.624Z,26.27
2022-11-04T16:04:22.893Z,23.65
2022-11-04T16:07:05.714Z,24.23
2022-11-04T16:09:46.279Z,26.10
2022-11-04T16:12:34.249Z,20.48
2022-11-04T16:15:00.750Z,24.80
2022-11-04T16:17:28.708Z,28.63
2022-11-04T16:20:02.577Z,20.00
2022-11-04T16:22:32.919Z,19.25
2022-11-04T16:25:02.019Z,18.27
2022-11-04T16:27:32.819Z,21.88
2022-11-04T16:30:10.580Z,20.87
2022-11-04T16:32:45.272Z,18.48
2022-11-04T16:35:14.692Z,19.33
2022-11-04T16:37:41.097Z,16.23
2022-11-04T16:40:08.232Z,17.35
2022-11-04T16:42:34.633Z,19.20
2022-11-04T16:45:03.304Z,19.17
2022-11-04T16:47:30.777Z,18.83
2022-11-04T16:50:01.758Z,18.98
2022-11-04T16:52:28.596Z,15.13
2022-11-04T16:54:56.276Z,16.65
2022-11-04T16:57:24.481Z,16.27
2022-11-04T16:59:51.182Z,20.98
2022-11-04T17:02:21.212Z,21.27
2022-11-04T17:04:47.915Z,16.05
2022-11-04T17:07:14.442Z,22.05
2022-11-04T17:09:41.046Z,20.98
2022-11-04T17:12:07.892Z,24.42
2022-11-04T17:14:34.971Z,18.98
2022-11-04T17:17:01.933Z,23.25
2022-11-04T17:19:34.249Z,18.50
2022-11-04T17:22:04.231Z,20.10
2022-11-04T17:24:30.803Z,22.92
2022-11-04T17:26:57.376Z,21.25
2022-11-04T17:29:23.938Z,21.40
2022-11-04T17:31:50.522Z,21.98
2022-11-04T17:34:16.911Z,21.40
2022-11-04T17:36:43.415Z,21.23
2022-11-04T17:39:09.904Z,23.58
2022-11-04T17:41:54.776Z,21.10
2022-11-04T17:44:21.269Z,23.42
2022-11-04T17:46:48.777Z,26.00
2022-11-04T17:49:20.749Z,30.08
2022-11-04T17:51:50.318Z,26.80
2022-11-04T17:54:17.138Z,27.77
2022-11-04T17:56:43.775Z,26.58
2022-11-04T17:59:12.303Z,33.95
2022-11-04T18:01:39.771Z,34.13
2022-11-04T18:04:07.360Z,32.30
2022-11-04T18:06:35.952Z,29.13
2022-11-04T18:09:03.404Z,28.92
2022-11-04T18:11:48.950Z,29.33
2022-11-04T18:14:17.474Z,28.63
2022-11-04T18:16:46.882Z,30.58
2022-11-04T18:19:14.531Z,30.45
2022-11-04T18:21:40.954Z,32.28
2022-11-04T18:24:07.842Z,32.80
2022-11-04T18:26:34.500Z,35.75
2022-11-04T18:29:01.784Z,37.50
2022-11-04T18:31:34.150Z,33.28
2022-11-04T18:34:02.848Z,35.90
2022-11-04T18:36:31.023Z,34.85
2022-11-04T18:38:57.471Z,33.40
2022-11-04T18:41:23.937Z,36.72
2022-11-04T18:43:50.331Z,34.08
2022-11-04T18:46:17.624Z,33.65
2022-11-04T18:48:49.512Z,33.35
2022-11-04T18:51:19.126Z,32.83
2022-11-04T18:53:46.076Z,33.83
2022-11-04T18:56:19.372Z,34.45
2022-11-04T18:58:46.296Z,31.80
2022-11-04T19:01:20.403Z,32.33
2022-11-04T19:03:47.499Z,33.03
2022-11-04T19:06:17.442Z,30.13
2022-11-04T19:08:46.840Z,30.05
2022-11-04T19:11:22.789Z,27.15
2022-11-04T19:13:55.121Z,23.08
2022-11-04T19:16:22.519Z,20.83
2022-11-04T19:18:49.487Z,21.83
2022-11-04T19:21:18.803Z,23.48
2022-11-04T19:23:45.869Z,28.17
2022-11-04T19:26:19.002Z,19.85
2022-11-04T19:28:48.520Z,20.60
2022-11-04T19:31:18.096Z,22.30
2022-11-04T19:33:44.844Z,18.10
2022-11-04T19:36:12.489Z,18.40
2022-11-04T19:38:39.459Z,23.70
2022-11-04T19:41:32.946Z,17.95
2022-11-04T19:44:01.781Z,18.58
2022-11-04T19:46:28.389Z,20.55
2022-11-04T19:48:56.533Z,17.48
2022-11-04T19:51:26.607Z,20.95
2022-11-04T19:53:57.318Z,21.08
2022-11-04T19:56:24.758Z,21.00
2022-11-04T19:58:51.292Z,19.52
2022-11-04T20:01:18.701Z,17.17
2022-11-04T20:03:45.457Z,19.77
2022-11-04T20:06:15.301Z,19.50
2022-11-04T20:08:44.306Z,14.23
2022-11-04T20:11:12.597Z,13.98
2022-11-04T20:13:46.606Z,13.10
2022-11-04T20:16:13.631Z,15.48
2022-11-04T20:18:40.135Z,12.75
2022-11-04T20:21:06.662Z,14.02
2022-11-04T20:23:33.126Z,12.35
2022-11-04T20:26:26.738Z,13.90
2022-11-04T20:28:54.621Z,13.57
2022-11-04T20:31:23.744Z,13.57
2022-11-04T20:33:51.652Z,13.70
2022-11-04T20:36:21.115Z,11.27
2022-11-04T20:38:47.840Z,11.98
2022-11-04T20:41:18.767Z,13.02
2022-11-04T20:43:49.376Z,12.63
2022-11-04T20:46:21.950Z,9.98
2022-11-04T20:48:50.266Z,17.48
2022-11-04T20:51:19.957Z,14.35
2022-11-04T20:53:47.489Z,12.05
2022-11-04T20:56:18.251Z,12.57
2022-11-04T20:58:47.830Z,39.53
2022-11-04T21:01:21.301Z,13.68
2022-11-04T21:03:47.833Z,18.63
2022-11-04T21:06:14.259Z,17.17
2022-11-04T21:08:40.677Z,22.58
2022-11-04T21:11:07.921Z,16.30
2022-11-04T21:13:34.483Z,22.27
2022-11-04T21:16:01.777Z,21.42
2022-11-04T21:18:28.296Z,19.45
2022-11-04T21:20:55.298Z,16.63
2022-11-04T21:23:22.303Z,16.05
2022-11-04T21:25:57.517Z,13.02
2022-11-04T21:28:24.965Z,15.68
2022-11-04T21:30:53.444Z,15.68
2022-11-04T21:33:20.070Z,13.50
2022-11-04T21:35:50.384Z,14.85
2022-11-04T21:38:18.213Z,16.48
2022-11-04T21:40:45.420Z,12.23
2022-11-04T21:43:13.345Z,12.45
2022-11-04T21:45:39.938Z,13.85
2022-11-04T21:48:06.803Z,11.85
2022-11-04T21:50:33.610Z,17.10
2022-11-04T21:53:00.395Z,13.80
2022-11-04T21:55:26.818Z,12.55
2022-11-04T21:57:53.337Z,11.88
2022-11-04T22:00:19.781Z,10.70
2022-11-04T22:02:52.959Z,14.15
2022-11-04T22:05:19.556Z,11.65
2022-11-04T22:08:04.549Z,11.30
2022-11-04T22:10:31.185Z,11.90
2022-11-04T22:12:57.614Z,10.23
2022-11-04T22:15:42.727Z,10.85
2022-11-04T22:18:09.261Z,11.52
2022-11-04T22:20:36.785Z,10.07
2022-11-04T22:23:03.471Z,9.85
2022-11-04T22:25:30.600Z,14.18
2022-11-04T22:27:57.264Z,10.18
2022-11-04T22:30:24.068Z,11.32
2022-11-04T22:32:51.705Z,13.48
2022-11-04T22:35:18.304Z,12.50
2022-11-04T22:37:44.777Z,12.40
2022-11-04T22:40:11.821Z,10.75
2022-11-04T22:42:38.428Z,15.05
2022-11-04T22:45:05.599Z,10.90
2022-11-04T22:47:32.182Z,11.00
2022-11-04T22:49:58.591Z,10.93
2022-11-04T22:52:25.147Z,12.45
2022-11-04T22:54:51.649Z,10.30
2022-11-04T22:57:18.087Z,10.30
2022-11-04T22:59:44.607Z,9.65
2022-11-04T23:02:11.288Z,9.25
2022-11-04T23:04:37.894Z,10.07
2022-11-04T23:07:04.744Z,12.23
2022-11-04T23:09:31.867Z,12.70
2022-11-04T23:12:17.060Z,12.80
2022-11-04T23:14:43.488Z,12.65
2022-11-04T23:17:37.060Z,11.38
2022-11-04T23:20:05.940Z,10.20
2022-11-04T23:22:50.746Z,10.60
2022-11-04T23:25:17.600Z,16.77
2022-11-04T23:28:06.771Z,14.45
2022-11-04T23:30:36.688Z,8.13
2022-11-04T23:33:09.081Z,9.40
2022-11-04T23:36:01.067Z,11.05
2022-11-04T23:38:31.158Z,12.75
2022-11-04T23:41:18.572Z,9.32
2022-11-04T23:43:45.240Z,11.15
2022-11-04T23:46:30.430Z,12.88
2022-11-04T23:49:15.729Z,9.00
2022-11-04T23:52:00.768Z,10.20
2022-11-04T23:54:46.172Z,6.82
2022-11-04T23:57:36.144Z,10.50
